Evangeline, Louisiana
Current Conditions -  °F | °C
As of 2:35 PM on Friday 28 Nov 2014 (Local Time) from K3R7 Reporting Station
Clear Clear  
Wind Chill: 63°   Ceiling: Unl
Heat Index: 63°   Visibility: 10mi
Dew Point: 46°   Wind: 8mph
Humidity: 55%   Direction: 170°S
Pressure: 30.27"   Gusts: NA
Location:  30.26°N, 92.57°W
Report Text: K3R7 282035Z AUTO 17007KT 10SM CLR 17/08 A3027 RMK AO2 T01700078
Loading
Personal Weather Stations






























Interactive Weather Map New forecast layout! Learn more

10-Day Weather Forecast

Advertisements
Track Severe Weather on mobile